Time;durP1;ratioP1;P1;durP2;ratioP2;P2;SDS_P1;SDS_P2;PMS_P1;PMS_P2;Temp;Humidity;BMP_temperature;BMP_pressure;BME280_temperature;BME280_humidity;BME280_pressure;Samples;Min_cycle;Max_cycle;Signal;HPM_P1;HPM_P2
2021/05/06 00:05:15;;;;;;;4.63;1.33;;;359.10;1920.00;;;;;;5094164;28;20136;-70
2021/05/06 00:32:20;;;;;;;5.85;1.30;;;333.20;1920.00;;;;;;5094075;28;20381;-70
2021/05/06 00:34:38;;;;;;;3.53;1.27;;;333.20;1920.00;;;;;;5089380;28;20054;-69
2021/05/06 00:37:04;;;;;;;3.40;1.30;;;333.20;1945.60;;;;;;5093891;28;20469;-68
2021/05/06 00:39:38;;;;;;;3.15;1.10;;;333.10;1945.60;;;;;;5093437;28;20032;-69
2021/05/06 01:00:43;;;;;;;4.28;1.45;;;332.90;2099.20;;;;;;5093004;28;20012;-68
2021/05/06 01:03:32;;;;;;;6.18;1.40;;;332.80;2124.80;;;;;;5092948;28;20043;-69
2021/05/06 01:06:03;;;;;;;4.13;1.25;;;332.80;2124.80;;;;;;5092990;28;20043;-68
2021/05/06 01:08:33;;;;;;;3.42;1.30;;;332.80;2124.80;;;;;;5093055;28;20503;-69
2021/05/06 01:11:14;;;;;;;5.57;1.20;;;332.80;2124.80;;;;;;5093273;28;20439;-70
2021/05/06 01:13:43;;;;;;;4.93;1.30;;;308.10;2124.80;;;;;;5092799;28;20028;-69
2021/05/06 01:16:09;;;;;;;3.80;1.30;;;308.00;2150.40;;;;;;5093056;28;20028;-68
2021/05/06 01:18:35;;;;;;;6.25;1.30;;;308.00;2176.00;;;;;;5092035;28;20050;-68
2021/05/06 01:21:02;;;;;;;3.42;1.20;;;308.00;2201.60;;;;;;5092958;28;20394;-69
2021/05/06 01:23:29;;;;;;;5.25;1.60;;;307.90;2201.60;;;;;;5092582;28;20496;-70
2021/05/06 01:26:05;;;;;;;5.82;1.85;;;307.90;2227.20;;;;;;5092605;28;20032;-69
2021/05/06 01:28:36;;;;;;;6.05;1.80;;;307.80;2227.20;;;;;;5092306;28;20384;-70
2021/05/06 01:41:50;;;;;;;2.30;1.20;;;307.50;2304.00;;;;;;4990713;28;20029;-68
2021/05/06 02:00:20;;;;;;;2.30;1.13;;;282.50;2278.40;;;;;;5092014;28;20490;-68
2021/05/06 02:02:47;;;;;;;5.72;1.30;;;282.50;2278.40;;;;;;5092127;28;20074;-70
2021/05/06 02:05:14;;;;;;;4.32;1.23;;;282.40;2278.40;;;;;;5092098;28;20032;-70
2021/05/06 02:07:41;;;;;;;2.80;1.10;;;282.40;2252.80;;;;;;5091794;28;20077;-70
2021/05/06 02:10:12;;;;;;;3.33;1.20;;;282.40;2278.40;;;;;;5091886;28;20024;-68
2021/05/06 02:12:38;;;;;;;3.90;1.40;;;282.40;2278.40;;;;;;5091987;28;20024;-70
2021/05/06 02:15:49;;;;;;;5.13;1.27;;;282.40;2278.40;;;;;;5091776;28;20069;-69
2021/05/06 02:18:02;;;;;;;3.08;1.20;;;282.50;2278.40;;;;;;5086314;28;20404;-70
2021/05/06 02:20:28;;;;;;;6.10;1.10;;;282.50;2278.40;;;;;;5091659;28;20032;-70
2021/05/06 02:22:53;;;;;;;2.17;1.17;;;282.50;2278.40;;;;;;5091524;28;20028;-69
2021/05/06 02:25:20;;;;;;;5.03;1.20;;;282.50;2278.40;;;;;;5091172;28;20032;-69
2021/05/06 02:27:47;;;;;;;2.58;1.13;;;282.50;2278.40;;;;;;5091603;28;20024;-70
2021/05/06 02:30:14;;;;;;;3.58;1.20;;;282.50;2278.40;;;;;;5091292;28;20024;-70
2021/05/06 02:32:40;;;;;;;4.07;1.10;;;282.50;2252.80;;;;;;5091818;28;20016;-70
2021/05/06 02:35:06;;;;;;;5.93;1.35;;;282.50;2252.80;;;;;;5091269;28;20489;-69
2021/05/06 02:37:32;;;;;;;4.32;1.50;;;282.50;2227.20;;;;;;5091369;28;20031;-70
2021/05/06 02:39:58;;;;;;;1.80;1.08;;;307.20;2252.80;;;;;;5091125;28;20028;-69
2021/05/06 02:42:24;;;;;;;4.85;1.10;;;282.50;2252.80;;;;;;5073039;28;20497;-68
2021/05/06 02:44:49;;;;;;;4.65;1.30;;;282.40;2252.80;;;;;;5091023;28;20028;-69
2021/05/06 02:47:16;;;;;;;3.00;1.20;;;282.30;2252.80;;;;;;5089960;28;20023;-69
2021/05/06 02:49:46;;;;;;;5.50;1.40;;;282.20;2278.40;;;;;;5091013;28;20032;-68
2021/05/06 02:52:37;;;;;;;;;;;282.20;2278.40;;;;;;5091431;28;20020;-68
2021/05/06 02:55:14;;;;;;;2.90;1.20;;;282.20;2278.40;;;;;;5090513;28;19908;-68
2021/05/06 02:57:44;;;;;;;3.83;1.10;;;282.10;2278.40;;;;;;5091297;28;20051;-69
2021/05/06 03:02:56;;;;;;;3.72;1.33;;;282.30;2278.40;;;;;;5091052;28;20038;-68
2021/05/06 03:05:27;;;;;;;3.75;1.20;;;282.20;2278.40;;;;;;5090822;28;20028;-68
2021/05/06 03:08:08;;;;;;;4.40;1.27;;;282.20;2278.40;;;;;;5091039;28;20027;-70
2021/05/06 03:22:40;;;;;;;3.58;1.30;;;282.20;2278.40;;;;;;5090728;28;20027;-70
2021/05/06 03:24:11;;;;;;;12.00;2.58;;;282.20;2278.40;;;;;;5090652;28;20367;-68
2021/05/06 03:26:37;;;;;;;5.43;1.17;;;282.20;2278.40;;;;;;5090703;28;20107;-69
2021/05/06 03:29:08;;;;;;;5.07;1.25;;;282.20;2278.40;;;;;;5090490;28;20108;-68
2021/05/06 03:42:27;;;;;;;4.70;1.90;;;282.20;2278.40;;;;;;5095071;28;20074;-69
2021/05/06 04:12:32;;;;;;;8.07;1.65;;;307.40;2278.40;;;;;;5094526;28;20077;-70
2021/05/06 04:36:13;;;;;;;4.45;1.40;;;307.60;2252.80;;;;;;5093627;28;20165;-68
2021/05/06 04:38:38;;;;;;;6.07;1.55;;;307.60;2227.20;;;;;;5093241;28;20032;-68
2021/05/06 04:55:24;;;;;;;4.75;2.20;;;307.90;2201.60;;;;;;5011615;28;20080;-69
2021/05/06 04:58:28;;;;;;;4.43;1.65;;;308.00;2201.60;;;;;;5064668;28;20058;-70
2021/05/06 05:06:09;;;;;;;3.00;1.45;;;332.80;2201.60;;;;;;5093155;28;20016;-69
2021/05/06 05:08:44;;;;;;;4.80;1.50;;;332.90;2201.60;;;;;;5092849;28;20016;-72
2021/05/06 05:25:37;;;;;;;6.13;2.15;;;333.20;2176.00;;;;;;5014334;28;20047;-69
2021/05/06 05:28:05;;;;;;;4.68;2.00;;;333.20;2150.40;;;;;;5030269;28;20149;-68
2021/05/06 05:30:33;;;;;;;5.93;1.90;;;333.30;2176.00;;;;;;5052670;28;20033;-69
2021/05/06 05:32:59;;;;;;;6.78;2.50;;;333.30;2150.40;;;;;;5090367;28;20149;-69
2021/05/06 05:39:09;;;;;;;5.75;1.80;;;333.40;2176.00;;;;;;4990765;28;20037;-70
2021/05/06 05:55:00;;;;;;;3.60;1.42;;;358.40;2099.20;;;;;;5092615;28;20174;-70
2021/05/06 05:57:25;;;;;;;8.82;1.60;;;358.60;2048.00;;;;;;5092004;28;20107;-71
2021/05/06 05:59:51;;;;;;;3.65;1.42;;;358.70;2048.00;;;;;;5092508;28;20032;-70
2021/05/06 06:02:17;;;;;;;4.63;1.85;;;358.80;1996.80;;;;;;5091861;28;20482;-69
2021/05/06 06:04:42;;;;;;;5.30;1.60;;;358.90;1996.80;;;;;;5092157;28;20159;-72
2021/05/06 06:07:08;;;;;;;3.15;1.70;;;359.00;1971.20;;;;;;5091790;28;20031;-67
2021/05/06 06:09:34;;;;;;;3.30;1.70;;;359.00;1945.60;;;;;;5091850;28;20133;-70
2021/05/06 06:11:59;;;;;;;3.22;1.30;;;359.00;1920.00;;;;;;5091882;28;20039;-68
2021/05/06 06:14:55;;;;;;;3.05;1.50;;;359.10;1920.00;;;;;;5091623;28;20135;-69
2021/05/06 06:17:12;;;;;;;2.67;1.45;;;359.10;1920.00;;;;;;5091018;28;20036;-72
2021/05/06 06:19:38;;;;;;;3.90;1.50;;;359.10;1920.00;;;;;;5091509;28;20038;-68
2021/05/06 06:22:08;;;;;;;3.92;1.50;;;359.10;1920.00;;;;;;5091659;28;20032;-68
2021/05/06 06:24:33;;;;;;;3.17;1.40;;;359.20;1920.00;;;;;;5091836;28;20463;-67
2021/05/06 06:26:59;;;;;;;4.53;1.63;;;359.30;1894.40;;;;;;5091876;28;20095;-70
2021/05/06 06:29:31;;;;;;;3.70;1.55;;;359.30;1894.40;;;;;;5091095;28;20028;-73
2021/05/06 06:31:59;;;;;;;3.47;1.77;;;359.30;1868.80;;;;;;5091703;28;20059;-68
2021/05/06 06:34:24;;;;;;;4.45;1.60;;;384.40;1868.80;;;;;;5091174;28;20067;-69
2021/05/06 06:36:50;;;;;;;4.65;1.73;;;384.70;1843.20;;;;;;5091560;28;20055;-68
2021/05/06 06:39:16;;;;;;;3.42;1.80;;;410.00;1792.00;;;;;;5091084;28;20474;-69
2021/05/06 06:41:45;;;;;;;5.18;1.75;;;410.30;1792.00;;;;;;5091353;28;20085;-70
2021/05/06 06:44:15;;;;;;;4.90;1.80;;;410.30;1740.80;;;;;;5091471;28;20085;-70
2021/05/06 06:46:41;;;;;;;5.53;2.00;;;435.20;1715.20;;;;;;5091461;28;20529;-69
2021/05/06 06:49:07;;;;;;;4.07;1.73;;;435.60;1715.20;;;;;;5090768;28;20047;-69
2021/05/06 06:51:33;;;;;;;6.45;1.70;;;435.70;1664.00;;;;;;5091448;28;20059;-71
2021/05/06 06:53:59;;;;;;;4.85;2.10;;;435.70;1638.40;;;;;;5091261;28;20023;-71
2021/05/06 06:56:24;;;;;;;3.55;1.58;;;436.00;1612.80;;;;;;5090995;28;20016;-70
2021/05/06 06:58:52;;;;;;;5.03;1.60;;;461.10;1638.40;;;;;;5090725;28;20031;-71
2021/05/06 07:01:19;;;;;;;6.97;1.80;;;461.70;1561.60;;;;;;5091010;28;20524;-70
2021/05/06 07:03:45;;;;;;;3.83;1.77;;;486.50;1536.00;;;;;;5090840;28;20032;-71
2021/05/06 07:06:12;;;;;;;3.78;1.70;;;487.30;1484.80;;;;;;5091290;28;20461;-70
2021/05/06 07:08:40;;;;;;;5.10;1.60;;;512.10;1433.60;;;;;;5090631;28;20030;-70
2021/05/06 07:11:07;;;;;;;5.32;1.77;;;512.20;1433.60;;;;;;5090569;28;20043;-71
2021/05/06 07:13:33;;;;;;;3.33;1.80;;;512.00;1433.60;;;;;;5090780;28;20054;-71
2021/05/06 07:16:06;;;;;;;6.15;1.80;;;487.30;1459.20;;;;;;5090833;28;20030;-71
2021/05/06 07:18:33;;;;;;;3.85;1.70;;;512.90;1408.00;;;;;;5090418;28;20036;-68
2021/05/06 07:21:00;;;;;;;4.00;1.90;;;537.70;1408.00;;;;;;5090940;28;20074;-70
2021/05/06 07:23:27;;;;;;;5.28;2.00;;;512.70;1382.40;;;;;;5090936;28;20020;-72
2021/05/06 07:25:55;;;;;;;4.35;1.77;;;512.50;1408.00;;;;;;5090577;28;20494;-70
2021/05/06 07:28:23;;;;;;;3.20;1.90;;;512.20;1408.00;;;;;;5090807;28;20024;-69
2021/05/06 07:30:50;;;;;;;5.88;1.85;;;512.20;1408.00;;;;;;5090596;28;20047;-69
2021/05/06 07:33:16;;;;;;;5.20;1.92;;;512.60;1382.40;;;;;;5090554;28;20027;-71
2021/05/06 07:35:43;;;;;;;3.05;1.60;;;538.00;1382.40;;;;;;5090775;28;20081;-70
2021/05/06 07:38:10;;;;;;;4.07;1.75;;;538.10;1356.80;;;;;;5090857;28;20052;-70
2021/05/06 07:40:38;;;;;;;3.97;1.90;;;538.50;1331.20;;;;;;5090561;28;20021;-71
2021/05/06 07:43:04;;;;;;;3.78;1.77;;;538.50;1305.60;;;;;;5090489;28;20032;-69
2021/05/06 07:45:30;;;;;;;4.57;1.67;;;538.40;1331.20;;;;;;5090751;28;20075;-70
2021/05/06 07:47:57;;;;;;;4.88;1.80;;;538.20;1280.00;;;;;;5090502;28;20090;-69
2021/05/06 07:50:23;;;;;;;4.15;1.67;;;538.50;1254.40;;;;;;5072579;28;20020;-71
2021/05/06 07:52:51;;;;;;;4.75;2.20;;;563.80;1254.40;;;;;;5090497;28;20035;-71
2021/05/06 07:55:17;;;;;;;4.63;1.80;;;563.80;1280.00;;;;;;5090580;28;20125;-71
2021/05/06 07:57:43;;;;;;;4.15;1.90;;;588.80;1254.40;;;;;;5090805;28;20378;-70
2021/05/06 08:00:13;;;;;;;4.63;1.60;;;589.20;1228.80;;;;;;5090617;28;20036;-70
2021/05/06 08:02:40;;;;;;;4.97;2.42;;;589.20;1203.20;;;;;;5089634;28;20063;-72
2021/05/06 08:05:07;;;;;;;4.63;2.00;;;589.00;1203.20;;;;;;5072509;28;20032;-70
2021/05/06 08:07:32;;;;;;;4.00;1.70;;;588.80;1203.20;;;;;;5090377;28;20012;-70
2021/05/06 08:09:58;;;;;;;5.40;1.67;;;589.10;1203.20;;;;;;5090050;28;20422;-70
2021/05/06 08:12:24;;;;;;;3.90;1.60;;;589.20;1203.20;;;;;;5090139;28;20020;-69
2021/05/06 08:14:52;;;;;;;3.75;1.50;;;564.00;1177.60;;;;;;5090570;28;20032;-71
2021/05/06 08:17:18;;;;;;;4.55;1.70;;;563.90;1177.60;;;;;;5089930;28;20582;-72
2021/05/06 08:19:46;;;;;;;4.47;1.83;;;563.90;1203.20;;;;;;5089848;28;20036;-71
2021/05/06 08:22:12;;;;;;;5.07;2.40;;;563.60;1203.20;;;;;;5090296;28;20035;-70
2021/05/06 08:24:37;;;;;;;2.88;1.80;;;563.30;1228.80;;;;;;5092593;28;20023;-71
2021/05/06 08:27:03;;;;;;;5.93;1.70;;;563.20;1228.80;;;;;;5075742;28;20051;-69
2021/05/06 08:29:29;;;;;;;3.95;1.70;;;538.10;1203.20;;;;;;5093468;28;20385;-69
2021/05/06 08:31:55;;;;;;;4.72;1.60;;;512.90;1228.80;;;;;;5093907;28;20020;-71
2021/05/06 08:34:21;;;;;;;3.97;1.92;;;512.60;1254.40;;;;;;5093639;28;20032;-69
2021/05/06 08:36:47;;;;;;;3.15;1.65;;;512.50;1254.40;;;;;;5094017;28;20028;-69
2021/05/06 08:39:12;;;;;;;5.72;1.80;;;512.00;1305.60;;;;;;5092880;28;20067;-69
2021/05/06 08:41:40;;;;;;;3.40;1.90;;;487.30;1331.20;;;;;;5092999;28;20455;-68
2021/05/06 08:44:09;;;;;;;4.70;1.90;;;512.00;1331.20;;;;;;5093331;28;20079;-69
2021/05/06 08:46:39;;;;;;;3.47;1.80;;;487.20;1356.80;;;;;;5093722;28;20020;-71
2021/05/06 08:49:10;;;;;;;4.25;1.90;;;512.00;1280.00;;;;;;5092772;28;20031;-69
2021/05/06 08:51:37;;;;;;;3.90;1.95;;;512.20;1305.60;;;;;;5093410;28;20013;-73
2021/05/06 08:54:04;;;;;;;4.90;1.98;;;512.40;1331.20;;;;;;5093095;28;20020;-71
2021/05/06 08:56:30;;;;;;;4.28;2.20;;;512.20;1331.20;;;;;;5075248;28;20023;-71
2021/05/06 08:58:56;;;;;;;5.38;2.00;;;512.20;1331.20;;;;;;5092922;28;20020;-71
2021/05/06 09:01:22;;;;;;;6.47;2.25;;;512.20;1305.60;;;;;;5093091;28;20023;-69
2021/05/06 09:03:47;;;;;;;4.30;2.00;;;512.30;1305.60;;;;;;5092958;28;20024;-70
2021/05/06 09:06:19;;;;;;;4.05;1.70;;;512.20;1280.00;;;;;;5093143;28;20056;-69
2021/05/06 09:08:56;;;;;;;3.72;1.70;;;512.40;1305.60;;;;;;5092468;28;20359;-70
2021/05/06 09:11:42;;;;;;;5.25;1.90;;;512.50;1280.00;;;;;;5092889;28;20070;-69
2021/05/06 09:14:09;;;;;;;5.57;1.90;;;512.60;1280.00;;;;;;5092951;28;20378;-71
2021/05/06 09:16:42;;;;;;;3.40;1.92;;;512.60;1305.60;;;;;;5092914;28;20496;-71
2021/05/06 09:19:13;;;;;;;4.68;2.15;;;512.80;1280.00;;;;;;5092425;28;20475;-70
2021/05/06 09:21:42;;;;;;;4.72;1.90;;;512.90;1280.00;;;;;;5092717;28;20547;-70
2021/05/06 09:24:10;;;;;;;3.58;1.75;;;512.80;1254.40;;;;;;5092697;28;20024;-69
2021/05/06 09:26:37;;;;;;;3.30;1.63;;;512.90;1228.80;;;;;;5092975;28;20379;-69
2021/05/06 09:29:05;;;;;;;3.75;1.90;;;537.60;1228.80;;;;;;5092035;28;20103;-70
2021/05/06 09:31:41;;;;;;;4.05;1.80;;;512.90;1228.80;;;;;;5092577;28;20012;-73
2021/05/06 09:34:09;;;;;;;7.18;2.60;;;512.90;1254.40;;;;;;5092116;28;20020;-68
2021/05/06 09:36:36;;;;;;;5.32;1.95;;;512.60;1254.40;;;;;;5092368;28;20055;-68
2021/05/06 09:39:03;;;;;;;3.97;2.20;;;512.40;1254.40;;;;;;5091913;28;20385;-70
2021/05/06 09:41:33;;;;;;;5.93;2.13;;;512.70;1254.40;;;;;;5092416;28;20026;-71
2021/05/06 09:44:08;;;;;;;6.20;2.28;;;512.60;1254.40;;;;;;5091950;28;20032;-70
2021/05/06 09:46:42;;;;;;;4.95;1.80;;;512.70;1254.40;;;;;;5092425;28;20012;-71
2021/05/06 09:49:13;;;;;;;3.45;1.80;;;537.70;1280.00;;;;;;5091688;28;20716;-72
2021/05/06 09:51:47;;;;;;;3.25;1.70;;;538.20;1280.00;;;;;;5092385;28;20108;-70
2021/05/06 09:54:15;;;;;;;4.00;1.98;;;538.10;1254.40;;;;;;5078851;28;20031;-70
2021/05/06 09:56:43;;;;;;;3.03;1.77;;;538.10;1254.40;;;;;;5092222;28;20020;-70
2021/05/06 09:59:10;;;;;;;3.20;1.80;;;538.10;1228.80;;;;;;5091753;28;20027;-70
2021/05/06 10:01:42;;;;;;;6.57;2.33;;;538.20;1280.00;;;;;;5091957;28;20069;-71
2021/05/06 10:04:26;;;;;;;7.53;2.20;;;538.20;1228.80;;;;;;5091905;28;20016;-72
2021/05/06 10:07:13;;;;;;;5.03;2.03;;;538.30;1254.40;;;;;;5092082;28;20603;-70
2021/05/06 10:10:09;;;;;;;5.10;1.80;;;538.40;1254.40;;;;;;5078990;28;20024;-70
2021/05/06 10:12:39;;;;;;;4.43;1.90;;;538.40;1228.80;;;;;;5091820;28;20062;-73
2021/05/06 10:15:09;;;;;;;10.07;2.65;;;538.50;1254.40;;;;;;5073623;28;20443;-71
2021/05/06 10:17:37;;;;;;;;;;;538.00;1254.40;;;;;;5091774;28;20135;-70
2021/05/06 10:20:04;;;;;;;7.38;2.20;;;538.10;1254.40;;;;;;5091495;28;20002;-70
2021/05/06 10:22:30;;;;;;;5.55;2.03;;;538.00;1254.40;;;;;;5091596;28;20062;-70
2021/05/06 10:25:00;;;;;;;5.13;1.90;;;537.70;1254.40;;;;;;5091465;28;20031;-70
2021/05/06 10:27:26;;;;;;;3.80;2.13;;;538.00;1254.40;;;;;;5091694;28;20485;-71
2021/05/06 10:29:59;;;;;;;4.00;1.90;;;538.10;1254.40;;;;;;5091251;28;20057;-72
2021/05/06 10:32:30;;;;;;;5.28;2.10;;;538.30;1228.80;;;;;;5091733;28;20402;-71
2021/05/06 10:35:17;;;;;;;4.60;2.08;;;538.00;1254.40;;;;;;5091467;28;20428;-72
2021/05/06 10:37:45;;;;;;;8.20;3.83;;;537.70;1254.40;;;;;;5090563;28;20035;-70
2021/05/06 10:40:23;;;;;;;6.88;3.60;;;537.60;1305.60;;;;;;5091311;28;20028;-70
2021/05/06 10:42:53;;;;;;;10.55;5.30;;;512.90;1254.40;;;;;;5091187;28;20039;-70
2021/05/06 10:45:22;;;;;;;5.72;2.22;;;537.60;1280.00;;;;;;5091174;28;20024;-70
2021/05/06 10:47:54;;;;;;;4.68;2.15;;;512.90;1254.40;;;;;;5090839;28;20032;-72
2021/05/06 10:50:22;;;;;;;5.75;2.70;;;512.90;1254.40;;;;;;5077582;28;20031;-70
2021/05/06 10:52:51;;;;;;;4.00;2.00;;;537.80;1280.00;;;;;;5091542;28;20385;-70
2021/05/06 10:55:47;;;;;;;3.97;1.98;;;537.80;1305.60;;;;;;5090942;28;20020;-69
2021/05/06 10:58:32;;;;;;;5.13;1.80;;;537.80;1254.40;;;;;;5091146;28;20556;-72
2021/05/06 11:01:04;;;;;;;5.40;2.33;;;538.00;1254.40;;;;;;5090952;28;20489;-70
2021/05/06 11:03:32;;;;;;;4.28;1.90;;;538.00;1280.00;;;;;;5091373;28;20038;-71
2021/05/06 11:05:58;;;;;;;4.90;2.00;;;538.20;1280.00;;;;;;5090546;28;20027;-71
2021/05/06 11:08:24;;;;;;;4.22;1.90;;;538.30;1254.40;;;;;;5090926;28;20424;-72
2021/05/06 11:10:50;;;;;;;5.53;2.35;;;538.30;1254.40;;;;;;5090978;28;20016;-72
2021/05/06 11:13:17;;;;;;;5.22;1.92;;;538.30;1280.00;;;;;;5091152;28;20061;-72
2021/05/06 11:15:44;;;;;;;7.05;2.30;;;538.20;1280.00;;;;;;5090876;28;20052;-71
2021/05/06 11:18:12;;;;;;;3.60;1.80;;;538.30;1254.40;;;;;;5090870;28;20076;-71
2021/05/06 11:20:39;;;;;;;3.45;1.70;;;538.40;1280.00;;;;;;5090520;28;20032;-70
2021/05/06 11:23:21;;;;;;;4.65;1.90;;;538.40;1280.00;;;;;;5090871;28;20531;-70
2021/05/06 11:25:51;;;;;;;4.70;2.00;;;563.20;1305.60;;;;;;5090623;28;20024;-70
2021/05/06 11:28:19;;;;;;;3.90;1.80;;;538.50;1228.80;;;;;;5090858;28;20023;-74
2021/05/06 11:30:47;;;;;;;5.13;2.25;;;538.50;1254.40;;;;;;5090383;28;20017;-70
2021/05/06 11:33:17;;;;;;;6.82;2.30;;;538.50;1228.80;;;;;;5090556;28;20043;-71
2021/05/06 11:36:04;;;;;;;4.05;1.77;;;538.30;1280.00;;;;;;5090555;28;20077;-70
2021/05/06 11:38:36;;;;;;;3.55;1.80;;;538.50;1254.40;;;;;;5077964;28;20093;-72
2021/05/06 11:41:10;;;;;;;5.63;2.40;;;538.50;1254.40;;;;;;5090477;28;20034;-72
2021/05/06 11:43:49;;;;;;;4.30;1.90;;;538.50;1254.40;;;;;;5077744;28;20016;-72
2021/05/06 11:46:16;;;;;;;4.28;1.88;;;538.50;1280.00;;;;;;5090751;28;20123;-69
2021/05/06 11:48:50;;;;;;;3.85;1.70;;;563.20;1305.60;;;;;;5090283;28;20031;-70
2021/05/06 11:51:32;;;;;;;3.78;1.95;;;563.20;1280.00;;;;;;5090535;28;20028;-72
2021/05/06 11:54:19;;;;;;;4.20;2.00;;;563.20;1305.60;;;;;;5090684;28;20016;-71
2021/05/06 11:56:50;;;;;;;4.30;2.10;;;563.30;1331.20;;;;;;5090394;28;20028;-70
2021/05/06 11:59:17;;;;;;;4.63;1.75;;;563.40;1280.00;;;;;;5080065;28;20025;-69
2021/05/06 12:01:44;;;;;;;3.88;2.13;;;538.50;1254.40;;;;;;5094363;28;20033;-70
2021/05/06 12:04:28;;;;;;;3.97;1.85;;;538.50;1228.80;;;;;;5094072;28;20023;-70
2021/05/06 12:06:54;;;;;;;4.03;1.90;;;538.00;1254.40;;;;;;5094312;28;20028;-70
2021/05/06 12:09:25;;;;;;;3.42;1.77;;;538.00;1280.00;;;;;;5093931;28;20109;-69
2021/05/06 12:11:52;;;;;;;4.57;1.77;;;538.10;1305.60;;;;;;5094428;28;20165;-70
2021/05/06 12:14:28;;;;;;;4.85;1.90;;;538.20;1280.00;;;;;;5093999;28;20039;-70
2021/05/06 12:16:54;;;;;;;5.18;2.00;;;538.40;1280.00;;;;;;5093903;28;20569;-69
2021/05/06 12:19:20;;;;;;;3.58;1.70;;;538.50;1280.00;;;;;;5093770;28;20119;-71
2021/05/06 12:21:52;;;;;;;4.70;1.90;;;538.50;1254.40;;;;;;5094002;28;20034;-74
2021/05/06 12:24:32;;;;;;;3.65;1.90;;;563.20;1305.60;;;;;;5093876;28;20046;-68
2021/05/06 12:27:00;;;;;;;4.65;1.90;;;563.40;1305.60;;;;;;5094070;28;20398;-69
2021/05/06 12:29:29;;;;;;;4.28;2.05;;;563.50;1280.00;;;;;;5093681;28;20474;-71
2021/05/06 12:31:55;;;;;;;5.15;1.85;;;563.70;1280.00;;;;;;5093944;28;20036;-71
2021/05/06 12:34:24;;;;;;;4.35;1.90;;;564.00;1254.40;;;;;;5093872;28;20489;-68
2021/05/06 12:37:00;;;;;;;5.88;2.00;;;564.10;1228.80;;;;;;5094095;28;20410;-70
2021/05/06 12:39:28;;;;;;;4.90;1.90;;;588.90;1203.20;;;;;;5093335;28;20050;-70
2021/05/06 12:41:56;;;;;;;4.88;2.10;;;588.90;1228.80;;;;;;5093874;28;20954;-70
2021/05/06 12:44:48;;;;;;;3.17;1.65;;;588.90;1203.20;;;;;;5093807;28;20028;-70
2021/05/06 12:47:20;;;;;;;4.93;1.85;;;588.80;1228.80;;;;;;5082480;28;20542;-69
2021/05/06 12:50:05;;;;;;;4.63;2.00;;;588.80;1254.40;;;;;;5093518;28;20382;-71
2021/05/06 12:52:36;;;;;;;3.65;2.00;;;564.10;1254.40;;;;;;5093604;28;20024;-71
2021/05/06 12:55:22;;;;;;;4.50;1.88;;;588.90;1228.80;;;;;;5093344;28;20030;-71
2021/05/06 12:58:06;;;;;;;4.03;1.73;;;588.90;1254.40;;;;;;5093548;28;20024;-71
2021/05/06 13:00:34;;;;;;;3.78;1.90;;;589.00;1203.20;;;;;;5093037;28;20024;-71
2021/05/06 13:03:01;;;;;;;4.72;1.98;;;589.00;1228.80;;;;;;5093136;28;20070;-71
2021/05/06 13:05:29;;;;;;;4.50;2.17;;;588.90;1228.80;;;;;;5093325;28;20503;-72
2021/05/06 13:07:56;;;;;;;4.57;1.80;;;588.90;1254.40;;;;;;5093067;28;20016;-72
2021/05/06 13:10:32;;;;;;;3.47;1.90;;;588.80;1254.40;;;;;;5092434;28;20093;-70
2021/05/06 13:12:58;;;;;;;4.60;1.80;;;589.00;1228.80;;;;;;5079739;28;20512;-71
2021/05/06 13:15:24;;;;;;;4.28;1.95;;;589.10;1254.40;;;;;;5093582;28;20028;-68
2021/05/06 13:17:50;;;;;;;3.28;1.80;;;589.10;1228.80;;;;;;5092652;28;20055;-72
2021/05/06 13:20:24;;;;;;;4.32;1.80;;;589.20;1254.40;;;;;;5092927;28;20028;-73
2021/05/06 13:23:01;;;;;;;3.47;1.73;;;589.20;1203.20;;;;;;5092616;28;20016;-73
2021/05/06 13:25:48;;;;;;;4.82;1.70;;;589.20;1203.20;;;;;;5093076;28;20032;-70
2021/05/06 13:28:19;;;;;;;4.65;1.98;;;589.20;1203.20;;;;;;5079617;28;20115;-71
2021/05/06 13:30:47;;;;;;;4.95;2.17;;;589.20;1228.80;;;;;;5092522;28;20027;-71
2021/05/06 13:33:16;;;;;;;4.63;2.10;;;589.20;1228.80;;;;;;5092770;28;20020;-70
2021/05/06 13:35:59;;;;;;;3.90;1.97;;;589.00;1228.80;;;;;;5093011;28;20022;-69
2021/05/06 13:38:25;;;;;;;2.92;1.65;;;588.90;1228.80;;;;;;5092500;28;20031;-69
2021/05/06 13:40:50;;;;;;;3.88;1.95;;;588.90;1254.40;;;;;;5092348;28;20027;-71
2021/05/06 13:43:16;;;;;;;3.25;1.80;;;564.10;1254.40;;;;;;5092333;28;20023;-72
2021/05/06 13:45:42;;;;;;;4.70;1.95;;;564.00;1254.40;;;;;;5092681;28;20115;-70
2021/05/06 13:48:07;;;;;;;3.45;1.90;;;564.10;1280.00;;;;;;5092222;28;20020;-70
2021/05/06 13:50:33;;;;;;;4.57;2.45;;;588.90;1280.00;;;;;;5092423;28;20470;-71
2021/05/06 13:53:00;;;;;;;3.75;1.90;;;588.90;1254.40;;;;;;5092056;28;20020;-70
2021/05/06 13:55:26;;;;;;;5.22;2.03;;;589.00;1254.40;;;;;;5092172;28;20390;-70
2021/05/06 13:57:51;;;;;;;3.30;1.90;;;589.00;1280.00;;;;;;5092232;28;20032;-70
2021/05/06 14:00:17;;;;;;;3.60;1.80;;;589.20;1254.40;;;;;;5091836;28;20024;-71
2021/05/06 14:02:43;;;;;;;5.47;1.95;;;589.20;1280.00;;;;;;5090288;28;20085;-70
2021/05/06 14:05:09;;;;;;;3.28;2.00;;;589.30;1254.40;;;;;;5092083;28;20102;-69
2021/05/06 14:07:35;;;;;;;3.70;1.95;;;589.40;1254.40;;;;;;5091734;28;20039;-74
2021/05/06 14:10:00;;;;;;;3.63;1.92;;;589.60;1254.40;;;;;;5091469;28;20571;-71
2021/05/06 14:12:26;;;;;;;3.83;2.10;;;589.70;1254.40;;;;;;5091808;28;20024;-70
2021/05/06 14:14:52;;;;;;;3.55;1.88;;;589.60;1228.80;;;;;;5092008;28;20093;-71
2021/05/06 14:17:17;;;;;;;5.45;2.00;;;589.30;1228.80;;;;;;5091503;28;20044;-74
2021/05/06 14:19:43;;;;;;;3.25;1.75;;;589.40;1228.80;;;;;;5091569;28;20432;-70
2021/05/06 14:22:09;;;;;;;3.20;1.70;;;589.70;1254.40;;;;;;5091201;28;20064;-71
2021/05/06 14:24:35;;;;;;;6.13;1.90;;;589.70;1228.80;;;;;;5091766;28;20490;-70
2021/05/06 14:27:01;;;;;;;3.40;1.70;;;589.70;1254.40;;;;;;5091858;28;20473;-70
2021/05/06 14:29:27;;;;;;;4.50;1.80;;;589.70;1203.20;;;;;;5091326;28;20431;-71
2021/05/06 14:31:53;;;;;;;4.20;2.00;;;614.40;1228.80;;;;;;5091651;28;20020;-70
2021/05/06 14:34:20;;;;;;;4.40;2.00;;;589.70;1254.40;;;;;;5091260;28;20024;-71
2021/05/06 14:36:45;;;;;;;3.70;1.88;;;614.50;1254.40;;;;;;5091671;28;20478;-74
2021/05/06 14:39:12;;;;;;;3.08;1.80;;;614.60;1203.20;;;;;;5091190;28;20035;-74
2021/05/06 14:41:40;;;;;;;4.35;1.80;;;614.70;1228.80;;;;;;5091192;28;20078;-73
2021/05/06 14:44:06;;;;;;;3.72;2.00;;;614.60;1203.20;;;;;;5091175;28;20032;-72
2021/05/06 14:46:32;;;;;;;4.85;2.00;;;614.40;1228.80;;;;;;5091584;28;20020;-73
2021/05/06 14:48:57;;;;;;;4.10;1.98;;;589.70;1254.40;;;;;;5090842;28;20410;-73
2021/05/06 14:51:23;;;;;;;2.88;1.70;;;589.70;1254.40;;;;;;5091400;28;20028;-73
2021/05/06 14:53:49;;;;;;;3.63;2.00;;;589.60;1254.40;;;;;;5091142;28;20024;-73
2021/05/06 14:56:15;;;;;;;3.40;1.83;;;589.60;1254.40;;;;;;5091183;28;20031;-70
2021/05/06 14:58:40;;;;;;;4.57;2.00;;;589.40;1280.00;;;;;;5090898;28;20042;-71
2021/05/06 15:01:06;;;;;;;3.40;2.00;;;589.50;1280.00;;;;;;5091121;28;20540;-70
2021/05/06 15:03:32;;;;;;;4.80;2.20;;;589.60;1280.00;;;;;;5091139;28;20032;-70
2021/05/06 15:05:58;;;;;;;3.22;2.15;;;589.70;1254.40;;;;;;5092054;28;20027;-70
2021/05/06 15:08:24;;;;;;;3.50;2.00;;;589.60;1280.00;;;;;;5091091;28;20024;-72
2021/05/06 15:10:50;;;;;;;5.60;2.20;;;589.40;1280.00;;;;;;5090624;28;20524;-72
2021/05/06 15:13:16;;;;;;;4.50;1.80;;;589.30;1280.00;;;;;;5091133;28;20020;-70
2021/05/06 15:15:42;;;;;;;3.72;1.80;;;589.20;1280.00;;;;;;5090714;28;20106;-72
2021/05/06 15:18:08;;;;;;;6.50;2.10;;;589.20;1280.00;;;;;;5090869;28;20040;-71
2021/05/06 15:20:34;;;;;;;5.18;1.98;;;589.20;1280.00;;;;;;5090507;28;20020;-70
2021/05/06 15:23:01;;;;;;;3.30;1.90;;;589.30;1305.60;;;;;;5090981;28;20031;-70
2021/05/06 15:25:27;;;;;;;5.35;2.00;;;589.30;1280.00;;;;;;5091151;28;20032;-70
2021/05/06 15:27:53;;;;;;;4.03;2.00;;;589.30;1254.40;;;;;;5090667;28;20028;-71
2021/05/06 15:30:20;;;;;;;4.90;2.05;;;589.10;1254.40;;;;;;5090652;28;20028;-70
2021/05/06 15:32:47;;;;;;;4.35;1.80;;;589.00;1280.00;;;;;;5092224;28;20074;-70
2021/05/06 15:35:13;;;;;;;4.68;1.80;;;589.00;1305.60;;;;;;5094905;28;20024;-70
2021/05/06 15:37:39;;;;;;;3.25;1.80;;;589.00;1305.60;;;;;;5076724;28;20039;-70
2021/05/06 15:40:10;;;;;;;4.03;1.90;;;589.00;1280.00;;;;;;5094641;28;20024;-72
2021/05/06 15:42:35;;;;;;;3.30;1.90;;;589.00;1305.60;;;;;;5094833;28;20028;-71
2021/05/06 15:45:07;;;;;;;3.72;2.00;;;589.00;1280.00;;;;;;5094885;28;20035;-72
2021/05/06 15:47:33;;;;;;;4.32;1.98;;;589.10;1280.00;;;;;;5094865;28;20024;-72